sensor_id;sensor_type;location;lat;lon;timestamp;P1;durP1;ratioP1;P2;durP2;ratioP2
71777;SDS011;59609;52.430;4.668;2023-04-10T00:00:04;15.00;;;8.93;;
71777;SDS011;59609;52.430;4.668;2023-04-10T00:02:30;13.68;;;8.23;;
71777;SDS011;59609;52.430;4.668;2023-04-10T00:04:56;16.30;;;8.32;;
71777;SDS011;59609;52.430;4.668;2023-04-10T00:07:22;15.43;;;7.88;;
71777;SDS011;59609;52.430;4.668;2023-04-10T00:09:47;13.73;;;7.95;;
71777;SDS011;59609;52.430;4.668;2023-04-10T00:12:12;14.98;;;8.15;;
71777;SDS011;59609;52.430;4.668;2023-04-10T00:14:39;13.55;;;7.50;;
71777;SDS011;59609;52.430;4.668;2023-04-10T00:17:04;14.70;;;8.73;;
71777;SDS011;59609;52.430;4.668;2023-04-10T00:19:30;14.95;;;7.97;;
71777;SDS011;59609;52.430;4.668;2023-04-10T00:21:55;15.13;;;8.35;;
71777;SDS011;59609;52.430;4.668;2023-04-10T00:24:21;13.35;;;7.70;;
71777;SDS011;59609;52.430;4.668;2023-04-10T00:26:46;15.77;;;8.50;;
71777;SDS011;59609;52.430;4.668;2023-04-10T00:29:12;12.80;;;8.27;;
71777;SDS011;59609;52.430;4.668;2023-04-10T00:31:37;15.45;;;8.35;;
71777;SDS011;59609;52.430;4.668;2023-04-10T00:34:02;13.93;;;8.20;;
71777;SDS011;59609;52.430;4.668;2023-04-10T00:36:28;13.18;;;7.75;;
71777;SDS011;59609;52.430;4.668;2023-04-10T00:38:53;13.35;;;7.93;;
71777;SDS011;59609;52.430;4.668;2023-04-10T00:41:19;16.73;;;8.07;;
71777;SDS011;59609;52.430;4.668;2023-04-10T00:43:44;13.23;;;7.90;;
71777;SDS011;59609;52.430;4.668;2023-04-10T00:46:09;15.15;;;7.95;;
71777;SDS011;59609;52.430;4.668;2023-04-10T00:48:35;15.52;;;8.20;;
71777;SDS011;59609;52.430;4.668;2023-04-10T00:51:00;14.65;;;7.95;;
71777;SDS011;59609;52.430;4.668;2023-04-10T00:53:27;14.50;;;7.93;;
71777;SDS011;59609;52.430;4.668;2023-04-10T00:55:53;14.27;;;8.25;;
71777;SDS011;59609;52.430;4.668;2023-04-10T00:58:20;13.02;;;8.13;;
71777;SDS011;59609;52.430;4.668;2023-04-10T01:00:46;14.30;;;8.13;;
71777;SDS011;59609;52.430;4.668;2023-04-10T01:03:13;11.98;;;7.60;;
71777;SDS011;59609;52.430;4.668;2023-04-10T01:05:43;13.52;;;7.97;;
71777;SDS011;59609;52.430;4.668;2023-04-10T01:11:20;15.95;;;8.65;;
71777;SDS011;59609;52.430;4.668;2023-04-10T01:16:35;13.55;;;7.60;;
71777;SDS011;59609;52.430;4.668;2023-04-10T01:22:16;13.48;;;7.40;;
71777;SDS011;59609;52.430;4.668;2023-04-10T01:25:00;13.98;;;8.18;;
71777;SDS011;59609;52.430;4.668;2023-04-10T01:28:06;13.25;;;7.85;;
71777;SDS011;59609;52.430;4.668;2023-04-10T01:30:33;16.25;;;7.88;;
71777;SDS011;59609;52.430;4.668;2023-04-10T01:32:59;14.30;;;7.88;;
71777;SDS011;59609;52.430;4.668;2023-04-10T01:35:26;14.43;;;7.78;;
71777;SDS011;59609;52.430;4.668;2023-04-10T01:37:53;16.42;;;8.40;;
71777;SDS011;59609;52.430;4.668;2023-04-10T01:40:21;14.75;;;8.02;;
71777;SDS011;59609;52.430;4.668;2023-04-10T01:42:51;14.43;;;8.88;;
71777;SDS011;59609;52.430;4.668;2023-04-10T01:45:19;14.10;;;8.30;;
71777;SDS011;59609;52.430;4.668;2023-04-10T01:47:49;15.40;;;9.27;;
71777;SDS011;59609;52.430;4.668;2023-04-10T01:50:15;15.57;;;8.45;;
71777;SDS011;59609;52.430;4.668;2023-04-10T01:52:42;16.63;;;8.48;;
71777;SDS011;59609;52.430;4.668;2023-04-10T01:55:09;14.98;;;8.65;;
71777;SDS011;59609;52.430;4.668;2023-04-10T01:57:35;16.13;;;8.60;;
71777;SDS011;59609;52.430;4.668;2023-04-10T02:00:02;13.77;;;8.55;;
71777;SDS011;59609;52.430;4.668;2023-04-10T02:02:31;13.23;;;7.63;;
71777;SDS011;59609;52.430;4.668;2023-04-10T02:04:57;16.75;;;9.43;;
71777;SDS011;59609;52.430;4.668;2023-04-10T02:10:24;13.07;;;7.88;;
71777;SDS011;59609;52.430;4.668;2023-04-10T02:13:13;15.27;;;9.00;;
71777;SDS011;59609;52.430;4.668;2023-04-10T02:15:41;15.95;;;8.90;;
71777;SDS011;59609;52.430;4.668;2023-04-10T02:18:10;13.00;;;7.70;;
71777;SDS011;59609;52.430;4.668;2023-04-10T02:20:39;13.48;;;8.15;;
71777;SDS011;59609;52.430;4.668;2023-04-10T02:23:05;18.20;;;8.95;;
71777;SDS011;59609;52.430;4.668;2023-04-10T02:25:31;13.13;;;7.63;;
71777;SDS011;59609;52.430;4.668;2023-04-10T02:27:57;14.80;;;8.40;;
71777;SDS011;59609;52.430;4.668;2023-04-10T02:30:28;13.73;;;7.82;;
71777;SDS011;59609;52.430;4.668;2023-04-10T02:32:53;15.52;;;8.90;;
71777;SDS011;59609;52.430;4.668;2023-04-10T02:35:19;13.85;;;8.68;;
71777;SDS011;59609;52.430;4.668;2023-04-10T02:37:45;12.65;;;7.78;;
71777;SDS011;59609;52.430;4.668;2023-04-10T02:40:11;13.38;;;7.72;;
71777;SDS011;59609;52.430;4.668;2023-04-10T02:42:36;14.65;;;7.47;;
71777;SDS011;59609;52.430;4.668;2023-04-10T02:45:02;12.50;;;7.60;;
71777;SDS011;59609;52.430;4.668;2023-04-10T02:47:27;13.27;;;8.15;;
71777;SDS011;59609;52.430;4.668;2023-04-10T02:49:53;13.73;;;7.18;;
71777;SDS011;59609;52.430;4.668;2023-04-10T02:52:18;15.85;;;7.43;;
71777;SDS011;59609;52.430;4.668;2023-04-10T02:54:43;13.88;;;7.40;;
71777;SDS011;59609;52.430;4.668;2023-04-10T02:57:09;12.77;;;7.78;;
71777;SDS011;59609;52.430;4.668;2023-04-10T02:59:34;13.57;;;7.45;;
71777;SDS011;59609;52.430;4.668;2023-04-10T03:02:00;13.30;;;8.10;;
71777;SDS011;59609;52.430;4.668;2023-04-10T03:04:25;15.90;;;8.50;;
71777;SDS011;59609;52.430;4.668;2023-04-10T03:06:52;13.48;;;7.80;;
71777;SDS011;59609;52.430;4.668;2023-04-10T03:09:17;12.05;;;7.38;;
71777;SDS011;59609;52.430;4.668;2023-04-10T03:11:42;12.25;;;7.78;;
71777;SDS011;59609;52.430;4.668;2023-04-10T03:14:08;16.77;;;7.55;;
71777;SDS011;59609;52.430;4.668;2023-04-10T03:16:36;12.75;;;7.65;;
71777;SDS011;59609;52.430;4.668;2023-04-10T03:19:01;12.20;;;8.02;;
71777;SDS011;59609;52.430;4.668;2023-04-10T03:21:27;13.98;;;7.93;;
71777;SDS011;59609;52.430;4.668;2023-04-10T03:23:52;12.60;;;7.63;;
71777;SDS011;59609;52.430;4.668;2023-04-10T03:26:18;13.43;;;7.75;;
71777;SDS011;59609;52.430;4.668;2023-04-10T03:28:43;13.13;;;7.78;;
71777;SDS011;59609;52.430;4.668;2023-04-10T03:31:09;14.07;;;7.90;;
71777;SDS011;59609;52.430;4.668;2023-04-10T03:33:36;12.82;;;8.07;;
71777;SDS011;59609;52.430;4.668;2023-04-10T03:36:02;13.23;;;7.38;;
71777;SDS011;59609;52.430;4.668;2023-04-10T03:38:28;12.60;;;7.65;;
71777;SDS011;59609;52.430;4.668;2023-04-10T03:40:53;12.70;;;7.55;;
71777;SDS011;59609;52.430;4.668;2023-04-10T03:43:18;12.98;;;7.65;;
71777;SDS011;59609;52.430;4.668;2023-04-10T03:45:44;12.77;;;7.57;;
71777;SDS011;59609;52.430;4.668;2023-04-10T03:48:09;13.68;;;8.18;;
71777;SDS011;59609;52.430;4.668;2023-04-10T03:50:35;12.73;;;7.32;;
71777;SDS011;59609;52.430;4.668;2023-04-10T03:53:00;12.20;;;7.25;;
71777;SDS011;59609;52.430;4.668;2023-04-10T03:55:26;13.20;;;7.88;;
71777;SDS011;59609;52.430;4.668;2023-04-10T03:57:51;14.88;;;7.93;;
71777;SDS011;59609;52.430;4.668;2023-04-10T04:00:17;14.35;;;8.05;;
71777;SDS011;59609;52.430;4.668;2023-04-10T04:02:42;14.20;;;8.65;;
71777;SDS011;59609;52.430;4.668;2023-04-10T04:05:08;13.43;;;8.00;;
71777;SDS011;59609;52.430;4.668;2023-04-10T04:07:33;13.27;;;7.82;;
71777;SDS011;59609;52.430;4.668;2023-04-10T04:09:59;12.68;;;7.65;;
71777;SDS011;59609;52.430;4.668;2023-04-10T04:12:25;12.68;;;7.47;;
71777;SDS011;59609;52.430;4.668;2023-04-10T04:14:50;15.65;;;7.70;;
71777;SDS011;59609;52.430;4.668;2023-04-10T04:17:15;13.13;;;6.15;;
71777;SDS011;59609;52.430;4.668;2023-04-10T04:19:41;10.32;;;6.70;;
71777;SDS011;59609;52.430;4.668;2023-04-10T04:22:06;13.73;;;7.70;;
71777;SDS011;59609;52.430;4.668;2023-04-10T04:24:32;13.40;;;7.50;;
71777;SDS011;59609;52.430;4.668;2023-04-10T04:26:57;12.55;;;7.18;;
71777;SDS011;59609;52.430;4.668;2023-04-10T04:29:22;13.70;;;7.28;;
71777;SDS011;59609;52.430;4.668;2023-04-10T04:31:48;14.18;;;7.35;;
71777;SDS011;59609;52.430;4.668;2023-04-10T04:34:14;11.68;;;7.05;;
71777;SDS011;59609;52.430;4.668;2023-04-10T04:36:40;10.57;;;6.75;;
71777;SDS011;59609;52.430;4.668;2023-04-10T04:39:06;10.63;;;7.22;;
71777;SDS011;59609;52.430;4.668;2023-04-10T04:41:31;11.82;;;7.22;;
71777;SDS011;59609;52.430;4.668;2023-04-10T04:43:57;11.57;;;7.18;;
71777;SDS011;59609;52.430;4.668;2023-04-10T04:46:23;10.15;;;6.15;;
71777;SDS011;59609;52.430;4.668;2023-04-10T04:48:49;12.25;;;6.72;;
71777;SDS011;59609;52.430;4.668;2023-04-10T04:51:14;10.38;;;6.53;;
71777;SDS011;59609;52.430;4.668;2023-04-10T04:53:40;12.05;;;6.78;;
71777;SDS011;59609;52.430;4.668;2023-04-10T04:56:06;11.10;;;6.80;;
71777;SDS011;59609;52.430;4.668;2023-04-10T04:58:32;9.15;;;5.65;;
71777;SDS011;59609;52.430;4.668;2023-04-10T05:00:58;9.70;;;5.28;;
71777;SDS011;59609;52.430;4.668;2023-04-10T05:03:23;11.15;;;6.57;;
71777;SDS011;59609;52.430;4.668;2023-04-10T05:05:48;10.90;;;6.40;;
71777;SDS011;59609;52.430;4.668;2023-04-10T05:08:14;10.63;;;6.45;;
71777;SDS011;59609;52.430;4.668;2023-04-10T05:10:39;10.18;;;6.13;;
71777;SDS011;59609;52.430;4.668;2023-04-10T05:13:05;9.95;;;6.30;;
71777;SDS011;59609;52.430;4.668;2023-04-10T05:15:30;10.18;;;5.80;;
71777;SDS011;59609;52.430;4.668;2023-04-10T05:17:55;8.85;;;6.60;;
71777;SDS011;59609;52.430;4.668;2023-04-10T05:20:21;9.88;;;6.57;;
71777;SDS011;59609;52.430;4.668;2023-04-10T05:22:47;8.68;;;5.95;;
71777;SDS011;59609;52.430;4.668;2023-04-10T05:25:12;9.80;;;6.20;;
71777;SDS011;59609;52.430;4.668;2023-04-10T05:27:38;10.60;;;6.03;;
71777;SDS011;59609;52.430;4.668;2023-04-10T05:30:03;8.93;;;6.13;;
71777;SDS011;59609;52.430;4.668;2023-04-10T05:32:29;10.00;;;6.03;;
71777;SDS011;59609;52.430;4.668;2023-04-10T05:34:54;10.32;;;6.47;;
71777;SDS011;59609;52.430;4.668;2023-04-10T05:37:20;11.43;;;6.75;;
71777;SDS011;59609;52.430;4.668;2023-04-10T05:39:45;9.65;;;6.35;;
71777;SDS011;59609;52.430;4.668;2023-04-10T05:42:10;9.32;;;6.05;;
71777;SDS011;59609;52.430;4.668;2023-04-10T05:44:37;11.20;;;6.13;;
71777;SDS011;59609;52.430;4.668;2023-04-10T05:47:03;10.80;;;7.10;;
71777;SDS011;59609;52.430;4.668;2023-04-10T05:49:28;11.48;;;6.88;;
71777;SDS011;59609;52.430;4.668;2023-04-10T05:51:53;10.93;;;6.47;;
71777;SDS011;59609;52.430;4.668;2023-04-10T05:54:19;8.75;;;6.25;;
71777;SDS011;59609;52.430;4.668;2023-04-10T05:56:44;10.20;;;6.53;;
71777;SDS011;59609;52.430;4.668;2023-04-10T05:59:10;9.55;;;4.57;;
71777;SDS011;59609;52.430;4.668;2023-04-10T06:01:37;11.27;;;6.35;;
71777;SDS011;59609;52.430;4.668;2023-04-10T06:04:03;10.20;;;6.50;;
71777;SDS011;59609;52.430;4.668;2023-04-10T06:06:28;10.05;;;6.28;;
71777;SDS011;59609;52.430;4.668;2023-04-10T06:08:54;9.05;;;5.43;;
71777;SDS011;59609;52.430;4.668;2023-04-10T06:11:20;12.60;;;5.53;;
71777;SDS011;59609;52.430;4.668;2023-04-10T06:13:46;9.65;;;6.05;;
71777;SDS011;59609;52.430;4.668;2023-04-10T06:16:12;9.57;;;6.13;;
71777;SDS011;59609;52.430;4.668;2023-04-10T06:18:39;11.88;;;6.60;;
71777;SDS011;59609;52.430;4.668;2023-04-10T06:21:04;7.85;;;5.57;;
71777;SDS011;59609;52.430;4.668;2023-04-10T06:23:30;9.43;;;6.55;;
71777;SDS011;59609;52.430;4.668;2023-04-10T06:25:55;9.20;;;6.47;;
71777;SDS011;59609;52.430;4.668;2023-04-10T06:28:21;9.82;;;6.13;;
71777;SDS011;59609;52.430;4.668;2023-04-10T06:30:46;9.65;;;6.60;;
71777;SDS011;59609;52.430;4.668;2023-04-10T06:33:12;9.40;;;6.47;;
71777;SDS011;59609;52.430;4.668;2023-04-10T06:35:37;10.40;;;6.10;;
71777;SDS011;59609;52.430;4.668;2023-04-10T06:38:03;10.95;;;6.57;;
71777;SDS011;59609;52.430;4.668;2023-04-10T06:40:28;8.90;;;6.28;;
71777;SDS011;59609;52.430;4.668;2023-04-10T06:42:54;8.13;;;6.13;;
71777;SDS011;59609;52.430;4.668;2023-04-10T06:45:20;9.63;;;6.28;;
71777;SDS011;59609;52.430;4.668;2023-04-10T06:47:46;11.23;;;7.07;;
71777;SDS011;59609;52.430;4.668;2023-04-10T06:50:11;8.50;;;5.95;;
71777;SDS011;59609;52.430;4.668;2023-04-10T06:52:36;10.20;;;6.50;;
71777;SDS011;59609;52.430;4.668;2023-04-10T06:55:02;9.05;;;6.00;;
71777;SDS011;59609;52.430;4.668;2023-04-10T06:57:27;9.00;;;5.85;;
71777;SDS011;59609;52.430;4.668;2023-04-10T06:59:53;8.63;;;5.95;;
71777;SDS011;59609;52.430;4.668;2023-04-10T07:02:18;9.40;;;5.97;;
71777;SDS011;59609;52.430;4.668;2023-04-10T07:04:44;9.02;;;6.55;;
71777;SDS011;59609;52.430;4.668;2023-04-10T07:07:09;8.80;;;5.90;;
71777;SDS011;59609;52.430;4.668;2023-04-10T07:09:37;8.35;;;6.30;;
71777;SDS011;59609;52.430;4.668;2023-04-10T07:12:03;8.77;;;5.75;;
71777;SDS011;59609;52.430;4.668;2023-04-10T07:14:29;9.90;;;6.35;;
71777;SDS011;59609;52.430;4.668;2023-04-10T07:16:55;9.65;;;6.60;;
71777;SDS011;59609;52.430;4.668;2023-04-10T07:19:20;6.78;;;5.43;;
71777;SDS011;59609;52.430;4.668;2023-04-10T07:21:46;9.02;;;5.13;;
71777;SDS011;59609;52.430;4.668;2023-04-10T07:24:14;10.40;;;6.57;;
71777;SDS011;59609;52.430;4.668;2023-04-10T07:26:41;9.82;;;6.45;;
71777;SDS011;59609;52.430;4.668;2023-04-10T07:29:06;9.95;;;6.78;;
71777;SDS011;59609;52.430;4.668;2023-04-10T07:31:33;8.60;;;5.90;;
71777;SDS011;59609;52.430;4.668;2023-04-10T07:33:58;9.13;;;6.53;;
71777;SDS011;59609;52.430;4.668;2023-04-10T07:36:24;9.07;;;6.43;;
71777;SDS011;59609;52.430;4.668;2023-04-10T07:38:51;11.63;;;5.90;;
71777;SDS011;59609;52.430;4.668;2023-04-10T07:41:16;9.50;;;5.63;;
71777;SDS011;59609;52.430;4.668;2023-04-10T07:43:41;8.25;;;6.40;;
71777;SDS011;59609;52.430;4.668;2023-04-10T07:46:07;10.00;;;6.45;;
71777;SDS011;59609;52.430;4.668;2023-04-10T07:48:32;9.00;;;5.80;;
71777;SDS011;59609;52.430;4.668;2023-04-10T07:50:57;9.90;;;6.40;;
71777;SDS011;59609;52.430;4.668;2023-04-10T07:53:23;8.80;;;5.60;;
71777;SDS011;59609;52.430;4.668;2023-04-10T07:55:48;9.25;;;6.53;;
71777;SDS011;59609;52.430;4.668;2023-04-10T07:58:14;9.52;;;6.03;;
71777;SDS011;59609;52.430;4.668;2023-04-10T08:00:40;8.65;;;5.55;;
71777;SDS011;59609;52.430;4.668;2023-04-10T08:03:06;9.13;;;6.40;;
71777;SDS011;59609;52.430;4.668;2023-04-10T08:05:31;10.00;;;6.38;;
71777;SDS011;59609;52.430;4.668;2023-04-10T08:07:57;9.55;;;6.38;;
71777;SDS011;59609;52.430;4.668;2023-04-10T08:10:23;7.72;;;5.70;;
71777;SDS011;59609;52.430;4.668;2023-04-10T08:12:48;9.57;;;6.28;;
71777;SDS011;59609;52.430;4.668;2023-04-10T08:15:14;9.23;;;6.47;;
71777;SDS011;59609;52.430;4.668;2023-04-10T08:17:40;9.32;;;6.18;;
71777;SDS011;59609;52.430;4.668;2023-04-10T08:20:05;9.70;;;5.95;;
71777;SDS011;59609;52.430;4.668;2023-04-10T08:22:31;8.63;;;5.95;;
71777;SDS011;59609;52.430;4.668;2023-04-10T08:24:57;9.93;;;6.70;;
71777;SDS011;59609;52.430;4.668;2023-04-10T08:27:22;8.60;;;5.80;;
71777;SDS011;59609;52.430;4.668;2023-04-10T08:29:47;7.93;;;5.53;;
71777;SDS011;59609;52.430;4.668;2023-04-10T08:32:13;9.43;;;6.47;;
71777;SDS011;59609;52.430;4.668;2023-04-10T08:34:38;7.88;;;5.70;;
71777;SDS011;59609;52.430;4.668;2023-04-10T08:37:07;7.78;;;5.90;;
71777;SDS011;59609;52.430;4.668;2023-04-10T08:39:36;8.27;;;6.07;;
71777;SDS011;59609;52.430;4.668;2023-04-10T08:42:02;8.63;;;6.05;;
71777;SDS011;59609;52.430;4.668;2023-04-10T08:44:27;9.60;;;6.18;;
71777;SDS011;59609;52.430;4.668;2023-04-10T08:46:53;10.00;;;6.57;;
71777;SDS011;59609;52.430;4.668;2023-04-10T08:49:23;9.32;;;6.13;;
71777;SDS011;59609;52.430;4.668;2023-04-10T08:51:54;9.38;;;6.32;;
71777;SDS011;59609;52.430;4.668;2023-04-10T08:54:25;9.68;;;6.25;;
71777;SDS011;59609;52.430;4.668;2023-04-10T08:56:52;8.07;;;6.13;;
71777;SDS011;59609;52.430;4.668;2023-04-10T08:59:19;10.00;;;6.20;;
71777;SDS011;59609;52.430;4.668;2023-04-10T09:01:45;8.32;;;5.10;;
71777;SDS011;59609;52.430;4.668;2023-04-10T09:04:11;10.10;;;6.50;;
71777;SDS011;59609;52.430;4.668;2023-04-10T09:06:37;9.02;;;6.60;;
71777;SDS011;59609;52.430;4.668;2023-04-10T09:09:04;8.38;;;5.07;;
71777;SDS011;59609;52.430;4.668;2023-04-10T09:16:47;8.07;;;5.90;;
71777;SDS011;59609;52.430;4.668;2023-04-10T09:19:12;10.18;;;6.75;;
71777;SDS011;59609;52.430;4.668;2023-04-10T09:21:38;9.55;;;6.88;;
71777;SDS011;59609;52.430;4.668;2023-04-10T09:24:03;8.40;;;6.60;;
71777;SDS011;59609;52.430;4.668;2023-04-10T09:26:32;11.70;;;6.63;;
71777;SDS011;59609;52.430;4.668;2023-04-10T09:34:09;10.30;;;6.40;;
71777;SDS011;59609;52.430;4.668;2023-04-10T09:36:35;9.00;;;6.80;;
71777;SDS011;59609;52.430;4.668;2023-04-10T09:39:01;9.77;;;7.05;;
71777;SDS011;59609;52.430;4.668;2023-04-10T09:41:27;8.52;;;6.20;;
71777;SDS011;59609;52.430;4.668;2023-04-10T09:44:09;8.43;;;6.32;;
71777;SDS011;59609;52.430;4.668;2023-04-10T09:46:36;11.13;;;6.55;;
71777;SDS011;59609;52.430;4.668;2023-04-10T09:49:02;8.18;;;6.53;;
71777;SDS011;59609;52.430;4.668;2023-04-10T09:51:33;8.45;;;6.32;;
71777;SDS011;59609;52.430;4.668;2023-04-10T09:54:00;9.57;;;6.53;;
71777;SDS011;59609;52.430;4.668;2023-04-10T09:58:57;9.82;;;7.38;;
71777;SDS011;59609;52.430;4.668;2023-04-10T10:01:25;9.85;;;6.45;;
71777;SDS011;59609;52.430;4.668;2023-04-10T10:03:53;8.77;;;5.43;;
71777;SDS011;59609;52.430;4.668;2023-04-10T10:06:20;10.20;;;6.95;;
71777;SDS011;59609;52.430;4.668;2023-04-10T10:08:46;9.48;;;5.90;;
71777;SDS011;59609;52.430;4.668;2023-04-10T10:11:12;8.68;;;6.40;;
71777;SDS011;59609;52.430;4.668;2023-04-10T10:13:49;7.80;;;5.75;;
71777;SDS011;59609;52.430;4.668;2023-04-10T10:16:23;7.93;;;5.20;;
71777;SDS011;59609;52.430;4.668;2023-04-10T10:19:08;9.25;;;6.60;;
71777;SDS011;59609;52.430;4.668;2023-04-10T10:21:41;7.60;;;5.30;;
71777;SDS011;59609;52.430;4.668;2023-04-10T10:24:08;8.07;;;6.53;;
71777;SDS011;59609;52.430;4.668;2023-04-10T10:26:34;9.07;;;5.63;;
71777;SDS011;59609;52.430;4.668;2023-04-10T10:29:04;9.90;;;6.85;;
71777;SDS011;59609;52.430;4.668;2023-04-10T10:31:34;8.88;;;5.78;;
71777;SDS011;59609;52.430;4.668;2023-04-10T10:34:01;11.40;;;6.88;;
71777;SDS011;59609;52.430;4.668;2023-04-10T10:36:29;11.30;;;7.63;;
71777;SDS011;59609;52.430;4.668;2023-04-10T10:42:10;12.25;;;8.15;;
71777;SDS011;59609;52.430;4.668;2023-04-10T10:45:05;13.18;;;8.63;;
71777;SDS011;59609;52.430;4.668;2023-04-10T10:47:37;12.35;;;8.13;;
71777;SDS011;59609;52.430;4.668;2023-04-10T10:50:06;19.90;;;9.00;;
71777;SDS011;59609;52.430;4.668;2023-04-10T10:52:38;20.33;;;10.15;;
71777;SDS011;59609;52.430;4.668;2023-04-10T10:57:52;15.05;;;8.90;;
71777;SDS011;59609;52.430;4.668;2023-04-10T11:00:21;14.73;;;9.38;;
71777;SDS011;59609;52.430;4.668;2023-04-10T11:08:17;12.88;;;7.93;;
71777;SDS011;59609;52.430;4.668;2023-04-10T11:11:05;12.63;;;8.25;;
71777;SDS011;59609;52.430;4.668;2023-04-10T11:13:35;12.70;;;8.38;;
71777;SDS011;59609;52.430;4.668;2023-04-10T11:16:02;13.55;;;8.93;;
71777;SDS011;59609;52.430;4.668;2023-04-10T11:21:13;12.38;;;8.25;;
71777;SDS011;59609;52.430;4.668;2023-04-10T11:28:59;15.40;;;9.88;;
71777;SDS011;59609;52.430;4.668;2023-04-10T11:31:31;14.48;;;9.52;;
71777;SDS011;59609;52.430;4.668;2023-04-10T11:34:06;16.55;;;9.65;;
71777;SDS011;59609;52.430;4.668;2023-04-10T11:36:33;15.95;;;10.32;;
71777;SDS011;59609;52.430;4.668;2023-04-10T11:39:03;13.27;;;9.48;;
71777;SDS011;59609;52.430;4.668;2023-04-10T11:41:36;15.68;;;9.90;;
71777;SDS011;59609;52.430;4.668;2023-04-10T11:44:04;13.95;;;9.25;;
71777;SDS011;59609;52.430;4.668;2023-04-10T11:46:37;13.52;;;8.82;;
71777;SDS011;59609;52.430;4.668;2023-04-10T11:49:04;16.15;;;9.32;;
71777;SDS011;59609;52.430;4.668;2023-04-10T11:51:34;13.18;;;8.90;;
71777;SDS011;59609;52.430;4.668;2023-04-10T11:54:06;13.32;;;9.80;;
71777;SDS011;59609;52.430;4.668;2023-04-10T11:56:33;16.70;;;10.38;;
71777;SDS011;59609;52.430;4.668;2023-04-10T11:58:58;14.10;;;9.73;;
71777;SDS011;59609;52.430;4.668;2023-04-10T12:01:25;14.93;;;8.75;;
71777;SDS011;59609;52.430;4.668;2023-04-10T12:03:51;15.43;;;8.60;;
71777;SDS011;59609;52.430;4.668;2023-04-10T12:06:16;12.55;;;7.82;;
71777;SDS011;59609;52.430;4.668;2023-04-10T12:08:44;15.20;;;9.00;;
71777;SDS011;59609;52.430;4.668;2023-04-10T12:11:18;12.18;;;8.48;;
71777;SDS011;59609;52.430;4.668;2023-04-10T12:13:45;11.68;;;8.18;;
71777;SDS011;59609;52.430;4.668;2023-04-10T12:16:12;10.23;;;7.05;;
71777;SDS011;59609;52.430;4.668;2023-04-10T12:18:38;10.38;;;7.65;;
71777;SDS011;59609;52.430;4.668;2023-04-10T12:21:04;10.77;;;7.72;;
71777;SDS011;59609;52.430;4.668;2023-04-10T12:23:31;10.40;;;7.05;;
71777;SDS011;59609;52.430;4.668;2023-04-10T12:26:08;11.57;;;8.10;;
71777;SDS011;59609;52.430;4.668;2023-04-10T12:28:34;11.85;;;7.20;;
71777;SDS011;59609;52.430;4.668;2023-04-10T12:31:00;8.10;;;6.80;;
71777;SDS011;59609;52.430;4.668;2023-04-10T12:33:27;9.32;;;7.20;;
71777;SDS011;59609;52.430;4.668;2023-04-10T12:35:52;10.95;;;7.05;;
71777;SDS011;59609;52.430;4.668;2023-04-10T12:38:33;7.28;;;6.25;;
71777;SDS011;59609;52.430;4.668;2023-04-10T12:41:02;8.68;;;6.07;;
71777;SDS011;59609;52.430;4.668;2023-04-10T12:43:31;6.18;;;4.80;;
71777;SDS011;59609;52.430;4.668;2023-04-10T12:45:58;7.90;;;6.63;;
71777;SDS011;59609;52.430;4.668;2023-04-10T12:48:24;10.55;;;7.20;;
71777;SDS011;59609;52.430;4.668;2023-04-10T12:50:50;9.38;;;6.45;;
71777;SDS011;59609;52.430;4.668;2023-04-10T12:53:16;9.93;;;7.15;;
71777;SDS011;59609;52.430;4.668;2023-04-10T12:55:41;8.95;;;6.35;;
71777;SDS011;59609;52.430;4.668;2023-04-10T12:58:22;8.65;;;7.15;;
71777;SDS011;59609;52.430;4.668;2023-04-10T13:00:52;7.03;;;5.55;;
71777;SDS011;59609;52.430;4.668;2023-04-10T13:03:18;8.77;;;6.25;;
71777;SDS011;59609;52.430;4.668;2023-04-10T13:05:44;10.38;;;6.70;;
71777;SDS011;59609;52.430;4.668;2023-04-10T13:08:10;7.63;;;6.43;;
71777;SDS011;59609;52.430;4.668;2023-04-10T13:10:35;9.70;;;6.75;;
71777;SDS011;59609;52.430;4.668;2023-04-10T13:13:02;9.45;;;7.47;;
71777;SDS011;59609;52.430;4.668;2023-04-10T13:15:28;10.40;;;6.88;;
71777;SDS011;59609;52.430;4.668;2023-04-10T13:17:54;8.90;;;6.45;;
71777;SDS011;59609;52.430;4.668;2023-04-10T13:20:19;8.20;;;6.45;;
71777;SDS011;59609;52.430;4.668;2023-04-10T13:22:46;10.02;;;7.60;;
71777;SDS011;59609;52.430;4.668;2023-04-10T13:25:11;8.82;;;6.80;;
71777;SDS011;59609;52.430;4.668;2023-04-10T13:27:37;9.38;;;6.15;;
71777;SDS011;59609;52.430;4.668;2023-04-10T13:30:02;9.02;;;7.05;;
71777;SDS011;59609;52.430;4.668;2023-04-10T13:32:28;9.45;;;6.82;;
71777;SDS011;59609;52.430;4.668;2023-04-10T13:34:53;10.88;;;7.07;;
71777;SDS011;59609;52.430;4.668;2023-04-10T13:37:18;9.48;;;7.10;;
71777;SDS011;59609;52.430;4.668;2023-04-10T13:39:44;11.27;;;7.75;;
71777;SDS011;59609;52.430;4.668;2023-04-10T13:42:09;7.88;;;6.53;;
71777;SDS011;59609;52.430;4.668;2023-04-10T13:44:35;10.73;;;6.88;;
71777;SDS011;59609;52.430;4.668;2023-04-10T13:47:00;13.38;;;7.05;;
71777;SDS011;59609;52.430;4.668;2023-04-10T13:49:26;10.27;;;7.20;;
71777;SDS011;59609;52.430;4.668;2023-04-10T13:51:55;9.95;;;7.38;;
71777;SDS011;59609;52.430;4.668;2023-04-10T13:54:21;8.25;;;7.35;;
71777;SDS011;59609;52.430;4.668;2023-04-10T13:56:47;12.73;;;8.55;;
71777;SDS011;59609;52.430;4.668;2023-04-10T13:59:14;9.13;;;7.65;;
71777;SDS011;59609;52.430;4.668;2023-04-10T14:01:39;11.57;;;8.43;;
71777;SDS011;59609;52.430;4.668;2023-04-10T14:04:04;12.68;;;9.57;;
71777;SDS011;59609;52.430;4.668;2023-04-10T14:06:30;9.98;;;8.98;;
71777;SDS011;59609;52.430;4.668;2023-04-10T14:08:55;12.77;;;8.57;;
71777;SDS011;59609;52.430;4.668;2023-04-10T14:11:21;12.65;;;8.02;;
71777;SDS011;59609;52.430;4.668;2023-04-10T14:13:47;12.05;;;8.73;;
71777;SDS011;59609;52.430;4.668;2023-04-10T14:16:12;14.20;;;9.02;;
71777;SDS011;59609;52.430;4.668;2023-04-10T14:18:38;15.68;;;9.05;;
71777;SDS011;59609;52.430;4.668;2023-04-10T14:21:04;16.30;;;12.15;;
71777;SDS011;59609;52.430;4.668;2023-04-10T14:23:29;12.70;;;11.15;;
71777;SDS011;59609;52.430;4.668;2023-04-10T14:25:55;12.95;;;9.93;;
71777;SDS011;59609;52.430;4.668;2023-04-10T14:28:20;11.95;;;10.05;;
71777;SDS011;59609;52.430;4.668;2023-04-10T14:30:46;14.10;;;10.40;;
71777;SDS011;59609;52.430;4.668;2023-04-10T14:33:13;18.85;;;12.07;;
71777;SDS011;59609;52.430;4.668;2023-04-10T14:35:39;14.30;;;12.02;;
71777;SDS011;59609;52.430;4.668;2023-04-10T14:38:04;13.88;;;10.93;;
71777;SDS011;59609;52.430;4.668;2023-04-10T14:40:30;10.93;;;9.77;;
71777;SDS011;59609;52.430;4.668;2023-04-10T14:42:55;11.90;;;10.02;;
71777;SDS011;59609;52.430;4.668;2023-04-10T14:45:21;12.75;;;11.45;;
71777;SDS011;59609;52.430;4.668;2023-04-10T14:47:46;12.77;;;10.13;;
71777;SDS011;59609;52.430;4.668;2023-04-10T14:50:12;12.40;;;9.98;;
71777;SDS011;59609;52.430;4.668;2023-04-10T14:52:37;11.30;;;9.75;;
71777;SDS011;59609;52.430;4.668;2023-04-10T14:55:03;10.18;;;6.90;;
71777;SDS011;59609;52.430;4.668;2023-04-10T14:57:28;12.73;;;7.75;;
71777;SDS011;59609;52.430;4.668;2023-04-10T14:59:54;11.88;;;8.90;;
71777;SDS011;59609;52.430;4.668;2023-04-10T15:02:19;9.68;;;7.35;;
71777;SDS011;59609;52.430;4.668;2023-04-10T15:04:45;9.18;;;6.82;;
71777;SDS011;59609;52.430;4.668;2023-04-10T15:07:11;10.25;;;9.13;;
71777;SDS011;59609;52.430;4.668;2023-04-10T15:09:37;11.43;;;9.60;;
71777;SDS011;59609;52.430;4.668;2023-04-10T15:12:03;9.98;;;7.05;;
71777;SDS011;59609;52.430;4.668;2023-04-10T15:14:28;10.70;;;8.65;;
71777;SDS011;59609;52.430;4.668;2023-04-10T15:16:55;8.40;;;7.60;;
71777;SDS011;59609;52.430;4.668;2023-04-10T15:19:20;11.48;;;6.82;;